This site, now in its 15th season, is a labour of love and fun from one of Ottawa's most avid time trialists and number crunchers. It adheres to and is permitted by the laws of Canada, promotes the objectives of every bicycle club whose results are shown, and is donated free of charge by myself for your enjoyment and usage. If you would like results from series you ride in to be shown here, give me (celia@drmath.ca) a shout!


Index Page
ATT OTT WTT AATT CFCTT VVVTT
Help resultformat:
Case-sensitive

OBC Open TT Series - 2008-Aug-28 - 15km (Rockliffe Pkwy) (EvtFactor = 0.9666)

Weather (18:00): Partly Cloudy. Temp.: 25C, Humidity: 52%, Dew Point: 15C, Wind: ESE 8km/h, Pressure: 101.6kPa, Vis: 24km, Humidex: 29.
Weather (19:00): Mostly Cloudy. Temp.: 23C, Humidity: 62%, Dew Point: 16C, Wind: E 5km/h, Pressure: 101.6kPa, Vis: 24km, Humidex: 28.
Weather (20:00): Mostly Cloudy. Temp.: 22C, Humidity: 66%, Dew Point: 16C, Wind: ESE 5km/h, Pressure: 101.6kPa, Vis: 24km, Humidex: 26.

Send photos with description (when/where/what) of yourself on or off of bike to celia@drmath.ca

These results were first posted on the OBC site circa 13:00 on 2008-Aug-29 and are available here for your added pleasure and analysis.

A very nice night with a light breeze made for some great times. The young Rancourt brothers were the most improved of the 28 people who bettered their previous 2008 OTT best. The top five in this list improved by more than 10%! As well, eighteen people improved upon their previous database best. Congratulations are also in order for the three people - 9 year old Nicholas Rancourt, 50 year old Paul Datars and 80 year old Geoffrey Wright - who improved the all-time bests in their categories. Way to go! You can see the top BIM, VCM and VFM performances by clicking here.

 
 

BESTS?
 
1 Nash, Michael  OBC 18:44 48.043 1/74 VBM 1/16 0.9868
Y 2 Datars, Paul  OBC/RWR 19:25 46.352 2/74 VCM 1/17 1.0077
3 Rendall, Glen  RWR 19:36 45.918 3/74 VAM 1/9 0.9923
4 Devisscher, Thomas APK 19:49 45.416 4/74 SEM 1/6 1.0671
5 van den Ham, Douglas  OBC 20:13 44.518 5/74 SEM 2/6 0.9804
6 Zuliani, Greg RWR 20:28 43.974 6/74 SEM 3/6 1.0547
7 Tsilemos, Jim RWR 20:43 43.443 7/74 VAM 2/9 0.9293
8 Sudac, Rick  OBC/RWR 20:51 43.165 8/74 VCM 2/17 0.9184
9 Schlatter, Sue  EMD 20:55 43.028 9/74 VBF 1/11 0.9415
10 Fulton, Sandy --- 20:56 42.994 10/74 SEM 4/6 0.9811
11 Gee, Jon OBC 20:59 42.891 11/74 VBM 2/16 0.9054
12 Parniak, Robert  OBC 21:04 42.722 12/74 VAM 3/9 0.9080
13 Romkey, Gary OBC/RWR 21:12 42.453 13/74 VDM 1/5 0.9836
14 Cameron, Allen  OBC/RWR 21:30 41.860 14/74 VCM 3/17 0.9815
15 Gerrard, David  OBC 21:32 41.796 15/74 VBM 3/16 1.0093
16 Lefebvre, Jean-Pierre OBC 21:35 41.699 16/74 VAM 4/9 0.9499
17 Morvan, Jacques  OBC 21:42 41.475 17/74 VDM 2/5 0.9681
18 Budgell, Glen  OBC 21:47 41.316 18/74 VCM 4/17 0.9795
19 Chedore, Paul --- 21:50 41.221 19/74 VAM 5/9  
20 Hinz, Richard OBC 21:56 41.033 20/74 VCM 5/17 1.0184
21 Revesz, Erika  OBC 22:00 40.909 21/74 VCF 1/3 0.9842
22 McKay, Allison  OBC/RDO 22:04 40.785 22/74 VBF 2/11 0.9378
23 Farish, Neil  OBC/RWR 22:14 40.480 23/74 VCM 6/17 0.9276
Thompson, William OBC 22:14 40.480 23/74 VBM 4/16 0.9821
25 Durand, Bernard  OBC 22:17 40.389 25/74 VBM 5/16 0.9342
26 Diaz, Rodrigo  OBC 22:25 40.149 26/74 VAM 6/9 0.9282
27 Grace, Darrin  OBC/EUR 22:29 40.030 27/74 VBM 6/16 0.9934
28 Burdett, Avery  OBC 22:37 39.794 28/74 VDM 3/5 1.0358
29 Reissner, Leslie OBC 22:43 39.618 29/74 VCM 7/17 1.0401
30 Morris, Steve --- 22:45 39.560 30/74 VBM 7/16 1.1045
31 Heij, Shawn OBC 22:49 39.445 31/74 VAM 7/9 1.1160
32 Blais, Bob OBC 22:50 39.416 32/74 VCM 8/17 1.0672
33 Coldwell, Michael  ABC 22:59 39.159 33/74 VBM 8/16 1.0873
34 Wilkins, Carl  OBC 23:01 39.102 34/74 SEM 5/6 1.0848
35 Blagdon, Wendy  EMD 23:05 38.989 35/74 VBF 3/11 0.9405
36 Kerckhoff, Hermann  RWR 23:12 38.793 36/74 VEM 1/1 0.9554
37 Henry, Mike OBC 23:13 38.765 37/74 VAM 8/9 1.0637
38 Dorego, Jean-Louis OBC 23:21 38.544 38/74 VCM 9/17 0.9641
39 James, Alison OBC 23:23 38.489 39/74 VAF 1/1  
40 Armstrong, Brian OBC 23:30 38.298 40/74 VBM 9/16 0.9664
41 Guenette, Jean-Yves --- 23:36 38.136 41/74 VCM 10/17  
42 Rancourt, Eric OBC 23:37 38.109 42/74 VBM 10/16 0.9811
43 Austen, Ian  OBC 23:39 38.055 43/74 VCM 11/17 1.0407
44 Paul, Richard  OBC 23:40 38.028 44/74 VCM 12/17 0.9645
45 Hind, Terry OBC/EUR 23:44 37.921 45/74 VCM 13/17 0.9300
46 Janusauskas, Vytas  OBC 23:53 37.683 46/74 VCM 14/17 1.0295
47 Imbrogno, Giorgio  OBC 23:55 37.631 47/74 VCM 15/17 1.0105
48 Fasken, Lee OBC 23:56 37.604 48/74 VCM 16/17 1.0705
49 Bernard, Audrey APK 24:07 37.319 49/74 CAF 1/1 0.8980
50 Desjardins, Marcel OBC 24:25 36.860 50/74 VDM 4/5 0.8616
51 McInnis, Celia  OBC/ABC 24:30 36.735 51/74 VCF 2/3 0.9617
52 Ingham, Alison  OBC 24:32 36.685 52/74 VBF 4/11 1.0123
Marleau, Dianne  OBC/RWR 24:32 36.685 52/74 VBF 4/11 0.8977
54 Datars, Sally OBC 24:51 36.217 54/74 VBF 6/11 1.0490
55 Georges, Patrick OBC 24:57 36.072 55/74 VBM 11/16 1.0283
56 McLaughlin, Brian OBC 25:00 36.000 56/74 VBM 12/16 1.0262
57 Levi, Cheryl OBC 25:01 35.976 57/74 VBF 7/11 0.9881
58 Robitaille, Brian 
(MTB: Front travel removed for marginal aero gain)
OBC 25:17 35.597 58/74 VBM 13/16 0.9457
59 Comeau, Paul OBC 25:25 35.410 59/74 VBM 14/16  
Konantz, Patricia  OBC 25:25 35.410 59/74 VCF 3/3 0.9012
61 Gagné, Marc  OBC 25:37 35.133 61/74 VBM 15/16 0.9370
62 Deavy, Carol  OBC 25:48 34.884 62/74 VBF 8/11  
63 Ajersch, Mary  OBC 26:00 34.615 63/74 VDF 1/1 0.9752
64 Stoneham, Ron OBC 26:10 34.395 64/74 VDM 5/5 1.0446
65 Liechti, Hans-Peter OBC 26:20 34.177 65/74 VBM 16/16 1.0000
66 McLaren, Louise  OBC 26:33 33.898 66/74 VBF 9/11 0.9720
Trepanier, Julie OBC 26:33 33.898 66/74 VBF 9/11 1.0189
68 Hart, Kate OBC/RWR 26:37 33.813 68/74 VBF 11/11 0.9850
69 Rancourt, Jerome OBC 26:48 33.582 69/74 PWM 1/1 1.2496
70 Tran, Anthony OBC 27:48 32.374 70/74 SEM 6/6 1.1176
71 Ramcharan, John OBC 27:55 32.239 71/74 VCM 17/17 1.0603
A 72 Wright, Geoffrey  OBC 28:18 31.802 72/74 VFM 1/1 1.0357
A 73 Rancourt, Nicolas OBC 30:53 29.142 73/74 BBM 1/1 1.1834
74 LeBrun, Robert OBC 35:07 25.629 74/74 VAM 9/9 0.9359
 
Average Speed of all of the above 74 finishes (1110km in 29:06:27):38.135
>>>Average of the Average Speeds for these 74 finishes38.571<<<
 

The number of data records shown above is 74
The server processing of your query took: 1 wallclock secs ( 0.15 usr + 0.05 sys = 0.20 CPU)

Thanks to our Helpers: Christopher Bernard, Gunter Hauschildt, Andrea McKay, Alex McKnight, Douglas Van Den ham.

     


Mar 21 (Good Friday)
Apr 24
May 1 May 6 (10km) May 8 May 13 (10km) May 15 May 20 May 20 (10km) May 22 May 27 May 27 (10km) May 29
Jun 1 (40km) Jun 3 Jun 3 Jun 5 Jun 10 Jun 10 Jun 12 Jun 17 Jun 17 Jun 19 Jun 24 Jun 24 Jun 26
Jul 1 (cancelled - ) Jul 2 Jul 3 Jul 6 (40km) Jul 8 Jul 8 Jul 10 Jul 15 Jul 15 Jul 17 Jul 22 Jul 22 Jul 24 Jul 27 (40km) Jul 29 Jul 29 Jul 31
Aug 5 Aug 5 Aug 7 Aug 10 (40km) Aug 12 Aug 12 Aug 14 Aug 19 Aug 19 Aug 21 Aug 26 Aug 26 (Invitational)
  Aug 28  
Sep 2 Sep 4 Sep 7 (40km) Sep 9 Sep 11 Sep 16 Sep 21 (40km) Sep 23 Sep 30

OTT Rankings
Best       Best by category
WTT Rankings for OBC Members
5 Best Speeds     5 Best Speeds by category
OBC Member Best Three 15km Rankings
Overall     by category     age-Hcap Female   age-Hcap Male
OBC BAR Ranking
Overall     by category     Rider "Consistency-Graph"
ABC BAR Ranking
Overall     by category     Rider "Consistency-Graph"
Other years
TT Calculator All TT People All TT events
ABC Home VVV Home
CKAP GOLD MEDAL
Other Links

Note: OTT data from 2003 through 2006-Apr-14 and 2007-Apr-06-? and WTT from 2008-? is taken from the official OBC site.

Please send your comments and suggestions to: Celia McInnis
Copyright © 1998-2011 Celia McInnis. All rights reserved. Links are welcomed.